Time;durP1;ratioP1;P1;durP2;ratioP2;P2;SDS_P1;SDS_P2;PMS_P1;PMS_P2;Temp;Humidity;BMP_temperature;BMP_pressure;BME280_temperature;BME280_humidity;BME280_pressure;Samples;Min_cycle;Max_cycle;Signal;HPM_P1;HPM_P2
2021/04/28 00:00:00;;;;;;;20.15;15.07;;;;;;;;;;4991565;28;20101;-61
2021/04/28 00:02:26;;;;;;;24.17;16.38;;;;;;;;;;4989661;28;20045;-61
2021/04/28 00:04:52;;;;;;;18.45;14.90;;;;;;;;;;4989005;28;20418;-61
2021/04/28 00:07:18;;;;;;;21.75;16.45;;;;;;;;;;4974308;28;20426;-61
2021/04/28 00:09:44;;;;;;;21.02;17.25;;;;;;;;;;4989552;28;20027;-61
2021/04/28 00:12:10;;;;;;;25.27;18.27;;;;;;;;;;4992556;28;20027;-61
2021/04/28 00:14:36;;;;;;;17.48;14.45;;;;;;;;;;4989413;28;20113;-61
2021/04/28 00:17:02;;;;;;;16.55;13.18;;;;;;;;;;4988949;28;20038;-61
2021/04/28 00:19:29;;;;;;;19.00;13.93;;;;;;;;;;4989011;28;20027;-61
2021/04/28 00:21:55;;;;;;;17.88;14.00;;;;;;;;;;4989375;28;20026;-61
2021/04/28 00:24:21;;;;;;;19.70;15.45;;;;;;;;;;4991369;28;20053;-61
2021/04/28 00:26:47;;;;;;;18.80;14.85;;;;;;;;;;4990174;28;20464;-61
2021/04/28 00:29:13;;;;;;;20.00;16.00;;;;;;;;;;4989448;28;20033;-61
2021/04/28 00:31:39;;;;;;;17.77;15.13;;;;;;;;;;4989224;28;20027;-61
2021/04/28 00:34:05;;;;;;;18.92;14.98;;;;;;;;;;4988868;28;20023;-61
2021/04/28 00:36:31;;;;;;;20.20;15.10;;;;;;;;;;4991077;28;20042;-61
2021/04/28 00:38:57;;;;;;;18.42;15.05;;;;;;;;;;4990733;28;20088;-61
2021/04/28 00:41:23;;;;;;;19.73;15.80;;;;;;;;;;4988323;28;20363;-61
2021/04/28 00:43:49;;;;;;;18.77;14.60;;;;;;;;;;4988691;28;20026;-61
2021/04/28 00:46:15;;;;;;;18.23;15.60;;;;;;;;;;4989206;28;20018;-61
2021/04/28 00:48:41;;;;;;;20.63;16.55;;;;;;;;;;4989606;28;20031;-61
2021/04/28 00:51:07;;;;;;;19.77;16.33;;;;;;;;;;4991562;28;20235;-61
2021/04/28 00:53:34;;;;;;;22.17;17.40;;;;;;;;;;4988883;28;20496;-61
2021/04/28 00:56:00;;;;;;;23.65;17.63;;;;;;;;;;4988625;28;20041;-61
2021/04/28 00:58:27;;;;;;;21.60;16.25;;;;;;;;;;4988998;28;20022;-61
2021/04/28 01:00:53;;;;;;;23.77;17.67;;;;;;;;;;4991434;28;20509;-61
2021/04/28 01:03:25;;;;;;;22.30;17.42;;;;;;;;;;4995051;28;20018;-61
2021/04/28 01:05:56;;;;;;;22.45;17.77;;;;;;;;;;4995955;28;20039;-61
2021/04/28 01:08:22;;;;;;;23.95;17.40;;;;;;;;;;4992351;28;20022;-61
2021/04/28 01:10:49;;;;;;;21.65;16.23;;;;;;;;;;4992735;28;20034;-61
2021/04/28 01:13:15;;;;;;;21.42;17.13;;;;;;;;;;4992277;28;20430;-61
2021/04/28 01:15:41;;;;;;;25.80;20.58;;;;;;;;;;4993181;28;20063;-61
2021/04/28 01:18:07;;;;;;;26.25;20.63;;;;;;;;;;4995669;28;20027;-61
2021/04/28 01:20:36;;;;;;;21.98;17.75;;;;;;;;;;4991686;28;20034;-61
2021/04/28 01:23:03;;;;;;;22.40;18.88;;;;;;;;;;4992136;28;20506;-61
2021/04/28 01:25:29;;;;;;;26.58;20.35;;;;;;;;;;4992557;28;20117;-61
2021/04/28 01:27:55;;;;;;;21.25;17.25;;;;;;;;;;4992655;28;20098;-61
2021/04/28 01:30:22;;;;;;;22.50;18.00;;;;;;;;;;4994312;28;20058;-61
2021/04/28 01:32:49;;;;;;;23.23;18.58;;;;;;;;;;4994275;28;20018;-62
2021/04/28 01:35:17;;;;;;;24.02;18.40;;;;;;;;;;4992314;28;20045;-61
2021/04/28 01:37:44;;;;;;;24.02;18.83;;;;;;;;;;4992139;28;20102;-61
2021/04/28 01:40:12;;;;;;;25.33;19.40;;;;;;;;;;4992390;28;20816;-61
2021/04/28 01:42:38;;;;;;;25.50;19.92;;;;;;;;;;4992441;28;20035;-61
2021/04/28 01:45:04;;;;;;;27.83;21.20;;;;;;;;;;4994295;28;20467;-61
2021/04/28 01:47:30;;;;;;;29.77;21.67;;;;;;;;;;4991985;28;20500;-61
2021/04/28 01:49:57;;;;;;;28.83;20.88;;;;;;;;;;4991947;28;20041;-61
2021/04/28 01:52:23;;;;;;;27.80;21.20;;;;;;;;;;4991219;28;20031;-61
2021/04/28 01:54:49;;;;;;;29.55;21.48;;;;;;;;;;4991672;28;20031;-61
2021/04/28 01:57:16;;;;;;;26.75;21.60;;;;;;;;;;4995105;28;20066;-61
2021/04/28 01:59:43;;;;;;;32.10;23.33;;;;;;;;;;4993309;28;20536;-61
2021/04/28 02:02:09;;;;;;;34.80;26.33;;;;;;;;;;4991439;28;20042;-61
2021/04/28 02:04:36;;;;;;;32.85;24.30;;;;;;;;;;4991479;28;20104;-61
2021/04/28 02:07:02;;;;;;;33.83;26.83;;;;;;;;;;4991428;28;20023;-61
2021/04/28 02:09:28;;;;;;;32.40;26.00;;;;;;;;;;4993812;28;20396;-61
2021/04/28 02:11:54;;;;;;;33.80;25.75;;;;;;;;;;4992238;28;20019;-61
2021/04/28 02:14:21;;;;;;;31.75;24.08;;;;;;;;;;4991048;28;20026;-61
2021/04/28 02:16:47;;;;;;;30.25;24.77;;;;;;;;;;4991295;28;20069;-61
2021/04/28 02:19:13;;;;;;;32.10;25.00;;;;;;;;;;4991750;28;20046;-61
2021/04/28 02:21:49;;;;;;;30.58;24.48;;;;;;;;;;4991813;28;20033;-61
2021/04/28 02:24:15;;;;;;;30.27;22.90;;;;;;;;;;4990902;28;20054;-62
2021/04/28 02:26:42;;;;;;;32.40;25.10;;;;;;;;;;4993062;28;20041;-61
2021/04/28 02:29:08;;;;;;;36.33;25.60;;;;;;;;;;4991084;28;20474;-61
2021/04/28 02:31:34;;;;;;;37.88;27.30;;;;;;;;;;4991174;28;20042;-61
2021/04/28 02:34:01;;;;;;;33.83;26.23;;;;;;;;;;4990679;28;20023;-61
2021/04/28 02:36:28;;;;;;;31.65;24.98;;;;;;;;;;4993095;28;20034;-61
2021/04/28 02:38:58;;;;;;;29.63;24.40;;;;;;;;;;4992339;28;20389;-61
2021/04/28 02:41:24;;;;;;;32.53;25.65;;;;;;;;;;4990932;28;20034;-61
2021/04/28 02:43:51;;;;;;;33.03;25.30;;;;;;;;;;4990454;28;20121;-61
2021/04/28 02:46:17;;;;;;;33.20;24.20;;;;;;;;;;4991015;28;20065;-61
2021/04/28 02:48:44;;;;;;;33.00;25.30;;;;;;;;;;4975519;28;20478;-61
2021/04/28 02:51:11;;;;;;;30.13;25.25;;;;;;;;;;4993877;28;20026;-61
2021/04/28 02:53:40;;;;;;;33.03;25.10;;;;;;;;;;4990761;28;20031;-61
2021/04/28 02:56:06;;;;;;;34.70;26.33;;;;;;;;;;4990736;28;20045;-61
2021/04/28 02:58:33;;;;;;;34.72;25.95;;;;;;;;;;4990726;28;20018;-61
2021/04/28 03:00:59;;;;;;;32.65;26.02;;;;;;;;;;4990140;28;20027;-61
2021/04/28 03:03:25;;;;;;;36.67;27.02;;;;;;;;;;4993059;28;20030;-61
2021/04/28 03:05:52;;;;;;;32.88;26.67;;;;;;;;;;4991756;28;20105;-61
2021/04/28 03:08:21;;;;;;;38.53;29.08;;;;;;;;;;4989931;28;20027;-61
2021/04/28 03:10:48;;;;;;;37.85;30.08;;;;;;;;;;4990596;28;20031;-61
2021/04/28 03:13:14;;;;;;;41.42;30.85;;;;;;;;;;4990318;28;20022;-61
2021/04/28 03:15:41;;;;;;;44.28;32.95;;;;;;;;;;4991124;28;20034;-61
2021/04/28 03:18:07;;;;;;;41.83;30.63;;;;;;;;;;4993029;28;20027;-62
2021/04/28 03:20:35;;;;;;;43.58;30.98;;;;;;;;;;4990158;28;20331;-62
2021/04/28 03:23:01;;;;;;;37.97;30.48;;;;;;;;;;4989056;28;20065;-62
2021/04/28 03:25:27;;;;;;;40.65;30.48;;;;;;;;;;4990470;28;20434;-62
2021/04/28 03:27:53;;;;;;;40.28;31.50;;;;;;;;;;4985745;28;20030;-62
2021/04/28 03:30:19;;;;;;;41.50;30.65;;;;;;;;;;4982030;28;20473;-62
2021/04/28 03:32:45;;;;;;;41.50;30.45;;;;;;;;;;4982241;28;20033;-62
2021/04/28 03:35:12;;;;;;;41.97;29.90;;;;;;;;;;4982205;28;20018;-62
2021/04/28 03:37:38;;;;;;;37.70;29.13;;;;;;;;;;4982374;28;20470;-62
2021/04/28 03:40:08;;;;;;;36.83;28.98;;;;;;;;;;4985362;28;20473;-62
2021/04/28 03:42:34;;;;;;;38.78;29.58;;;;;;;;;;4981970;28;20335;-62
2021/04/28 03:44:59;;;;;;;35.65;29.55;;;;;;;;;;4983040;28;20022;-62
2021/04/28 03:47:25;;;;;;;39.78;30.63;;;;;;;;;;4989729;28;20146;-62
2021/04/28 03:49:52;;;;;;;42.33;32.20;;;;;;;;;;4986603;28;20043;-62
2021/04/28 03:52:18;;;;;;;42.53;31.98;;;;;;;;;;4986765;28;20053;-63
2021/04/28 03:54:44;;;;;;;43.28;34.67;;;;;;;;;;4974733;28;20078;-63
2021/04/28 03:57:11;;;;;;;43.80;34.08;;;;;;;;;;4992750;28;20556;-62
2021/04/28 03:59:37;;;;;;;43.38;33.63;;;;;;;;;;4988750;28;20489;-62
2021/04/28 04:02:03;;;;;;;40.40;32.05;;;;;;;;;;4989057;28;20030;-62
2021/04/28 04:04:29;;;;;;;44.35;33.00;;;;;;;;;;4989486;28;20030;-62
2021/04/28 04:06:56;;;;;;;42.70;32.70;;;;;;;;;;4989452;28;20035;-62
2021/04/28 04:09:22;;;;;;;45.30;34.28;;;;;;;;;;4991397;28;20391;-62
2021/04/28 04:11:49;;;;;;;40.80;31.98;;;;;;;;;;4989952;28;20022;-62
2021/04/28 04:14:15;;;;;;;43.83;32.42;;;;;;;;;;4989531;28;20522;-62
2021/04/28 04:16:41;;;;;;;42.72;32.92;;;;;;;;;;4989227;28;20509;-62
2021/04/28 04:19:07;;;;;;;43.05;31.90;;;;;;;;;;4989574;28;20386;-62
2021/04/28 04:21:33;;;;;;;41.33;31.95;;;;;;;;;;4991300;28;20026;-62
2021/04/28 04:23:59;;;;;;;41.30;32.00;;;;;;;;;;4989854;28;20045;-62
2021/04/28 04:26:25;;;;;;;40.42;30.83;;;;;;;;;;4988963;28;20039;-62
2021/04/28 04:28:51;;;;;;;41.67;32.10;;;;;;;;;;4989454;28;20023;-62
2021/04/28 04:31:17;;;;;;;37.97;30.23;;;;;;;;;;4989215;28;20084;-62
2021/04/28 04:33:43;;;;;;;41.47;31.08;;;;;;;;;;4989316;28;20018;-62
2021/04/28 04:36:09;;;;;;;41.60;31.45;;;;;;;;;;4991270;28;20034;-62
2021/04/28 04:38:35;;;;;;;41.72;30.48;;;;;;;;;;4988425;28;20034;-62
2021/04/28 04:41:01;;;;;;;40.53;29.55;;;;;;;;;;4988913;28;20101;-62
2021/04/28 04:43:27;;;;;;;38.95;29.50;;;;;;;;;;4989062;28;20485;-62
2021/04/28 04:45:53;;;;;;;37.83;29.40;;;;;;;;;;4989104;28;20105;-62
2021/04/28 04:48:19;;;;;;;38.25;29.60;;;;;;;;;;4991641;28;20482;-61
2021/04/28 04:50:45;;;;;;;37.88;29.40;;;;;;;;;;4989472;28;20030;-62
2021/04/28 04:53:11;;;;;;;34.33;28.05;;;;;;;;;;4988277;28;20097;-62
2021/04/28 04:55:37;;;;;;;37.00;28.88;;;;;;;;;;4989328;28;20150;-63
2021/04/28 04:58:03;;;;;;;37.35;27.65;;;;;;;;;;4988397;28;20037;-63
2021/04/28 05:00:29;;;;;;;38.90;27.23;;;;;;;;;;4991027;28;20085;-63
2021/04/28 05:02:55;;;;;;;35.03;27.77;;;;;;;;;;4989897;28;20026;-62
2021/04/28 05:05:21;;;;;;;36.72;27.67;;;;;;;;;;4988065;28;20061;-62
2021/04/28 05:07:47;;;;;;;35.20;26.90;;;;;;;;;;4988216;28;20030;-62
2021/04/28 05:10:14;;;;;;;37.10;27.48;;;;;;;;;;4988839;28;20541;-62
2021/04/28 05:12:45;;;;;;;34.50;27.05;;;;;;;;;;4990112;28;20026;-62
2021/04/28 05:15:11;;;;;;;35.15;27.08;;;;;;;;;;4991821;28;20030;-63
2021/04/28 05:17:37;;;;;;;36.13;27.27;;;;;;;;;;4988425;28;20077;-63
2021/04/28 05:20:03;;;;;;;35.00;27.08;;;;;;;;;;4988720;28;20505;-62
2021/04/28 05:22:29;;;;;;;33.45;25.33;;;;;;;;;;4987910;28;20026;-62
2021/04/28 05:24:55;;;;;;;35.83;26.88;;;;;;;;;;4971652;28;20023;-61
2021/04/28 05:27:25;;;;;;;37.72;27.48;;;;;;;;;;4991110;28;20031;-62
2021/04/28 05:29:51;;;;;;;33.28;25.25;;;;;;;;;;4989585;28;20109;-61
2021/04/28 05:32:17;;;;;;;35.33;26.75;;;;;;;;;;4988130;28;20035;-61
2021/04/28 05:34:44;;;;;;;34.22;26.33;;;;;;;;;;4988341;28;20018;-62
2021/04/28 05:37:12;;;;;;;32.60;26.35;;;;;;;;;;4988524;28;20161;-61
2021/04/28 05:39:38;;;;;;;30.30;25.08;;;;;;;;;;4989524;28;20774;-62
2021/04/28 05:42:04;;;;;;;32.63;24.63;;;;;;;;;;4990583;28;20675;-62
2021/04/28 05:44:30;;;;;;;34.97;25.63;;;;;;;;;;4988600;28;20081;-62
2021/04/28 05:46:56;;;;;;;34.00;24.95;;;;;;;;;;4990267;28;20030;-61
2021/04/28 05:49:22;;;;;;;33.17;24.63;;;;;;;;;;4991958;28;20030;-61
2021/04/28 05:51:48;;;;;;;33.20;25.88;;;;;;;;;;4991531;28;20050;-62
2021/04/28 05:54:14;;;;;;;32.95;25.35;;;;;;;;;;4995160;28;20381;-61
2021/04/28 05:56:40;;;;;;;34.47;25.73;;;;;;;;;;4991287;28;20069;-60
2021/04/28 05:59:07;;;;;;;35.35;26.90;;;;;;;;;;4992156;28;20030;-60
2021/04/28 06:01:33;;;;;;;37.75;26.00;;;;;;;;;;4991669;28;20088;-62
2021/04/28 06:03:59;;;;;;;35.42;27.10;;;;;;;;;;4991507;28;20027;-61
2021/04/28 06:06:26;;;;;;;37.13;27.75;;;;;;;;;;4993522;28;20030;-61
2021/04/28 06:08:52;;;;;;;38.58;28.55;;;;;;;;;;4992993;28;20441;-61
2021/04/28 06:11:18;;;;;;;35.78;27.83;;;;;;;;;;4991343;28;20034;-61
2021/04/28 06:13:46;;;;;;;34.60;26.73;;;;;;;;;;4975353;28;20027;-61
2021/04/28 06:16:12;;;;;;;34.83;26.77;;;;;;;;;;4984402;28;20084;-61
2021/04/28 06:18:38;;;;;;;33.28;28.00;;;;;;;;;;4991849;28;20130;-61
2021/04/28 06:21:05;;;;;;;34.45;27.48;;;;;;;;;;4994829;28;20034;-61
2021/04/28 06:23:33;;;;;;;37.40;28.30;;;;;;;;;;4988985;28;20133;-61
2021/04/28 06:25:59;;;;;;;35.60;28.45;;;;;;;;;;4990116;28;20030;-61
2021/04/28 06:28:25;;;;;;;36.20;28.67;;;;;;;;;;4991032;28;20033;-61
2021/04/28 06:30:51;;;;;;;37.63;27.60;;;;;;;;;;4990330;28;20042;-61
2021/04/28 06:33:17;;;;;;;35.13;27.30;;;;;;;;;;4993210;28;20046;-61
2021/04/28 06:35:43;;;;;;;36.08;27.77;;;;;;;;;;4990558;28;20121;-60
2021/04/28 06:38:09;;;;;;;36.80;29.33;;;;;;;;;;4990581;28;20050;-61
2021/04/28 06:40:35;;;;;;;37.45;29.17;;;;;;;;;;4990782;28;20457;-61
2021/04/28 06:43:01;;;;;;;36.13;27.67;;;;;;;;;;4989851;28;20085;-61
2021/04/28 06:45:27;;;;;;;34.97;28.40;;;;;;;;;;4992436;28;20478;-61
2021/04/28 06:47:53;;;;;;;33.50;27.90;;;;;;;;;;4991772;28;20033;-61
2021/04/28 06:50:19;;;;;;;32.88;25.90;;;;;;;;;;4990015;28;20026;-61
2021/04/28 06:52:45;;;;;;;33.03;25.52;;;;;;;;;;4989694;28;20121;-61
2021/04/28 06:55:12;;;;;;;33.85;25.35;;;;;;;;;;4990321;28;20018;-61
2021/04/28 06:57:38;;;;;;;33.13;26.42;;;;;;;;;;4991363;28;20545;-61
2021/04/28 07:00:05;;;;;;;34.60;25.95;;;;;;;;;;4992440;28;20060;-61
2021/04/28 07:02:30;;;;;;;31.30;25.38;;;;;;;;;;4989515;28;20114;-61
2021/04/28 07:04:56;;;;;;;30.35;23.95;;;;;;;;;;4989580;28;20026;-61
2021/04/28 07:07:22;;;;;;;30.98;24.45;;;;;;;;;;4990093;28;20035;-61
2021/04/28 07:09:48;;;;;;;32.70;24.42;;;;;;;;;;5001614;28;20041;-61
2021/04/28 07:12:14;;;;;;;28.58;22.55;;;;;;;;;;4992773;28;20029;-59
2021/04/28 07:14:40;;;;;;;30.83;24.00;;;;;;;;;;4989090;28;20030;-59
2021/04/28 07:17:08;;;;;;;28.27;22.10;;;;;;;;;;4989588;28;20113;-61
2021/04/28 07:19:34;;;;;;;26.50;22.85;;;;;;;;;;4988287;28;20022;-61
2021/04/28 07:22:00;;;;;;;28.55;22.70;;;;;;;;;;4989619;28;20030;-59
2021/04/28 07:24:26;;;;;;;27.77;20.77;;;;;;;;;;4991194;28;20049;-59
2021/04/28 07:26:54;;;;;;;26.50;20.45;;;;;;;;;;4990164;28;20389;-59
2021/04/28 07:29:20;;;;;;;24.65;19.38;;;;;;;;;;4989725;28;20026;-61
2021/04/28 07:31:46;;;;;;;23.80;19.45;;;;;;;;;;4989351;28;20105;-59
2021/04/28 07:34:12;;;;;;;21.85;18.35;;;;;;;;;;4988609;28;20023;-59
2021/04/28 07:36:38;;;;;;;23.40;18.90;;;;;;;;;;4990255;28;20030;-60
2021/04/28 07:39:06;;;;;;;22.48;18.20;;;;;;;;;;4991456;28;20486;-59
2021/04/28 07:41:32;;;;;;;22.10;17.55;;;;;;;;;;4989257;28;20023;-59
2021/04/28 07:43:58;;;;;;;24.17;17.70;;;;;;;;;;4989512;28;20058;-61
2021/04/28 07:46:24;;;;;;;23.88;18.17;;;;;;;;;;4989331;28;20018;-61
2021/04/28 07:48:50;;;;;;;25.67;18.13;;;;;;;;;;4989219;28;20038;-61
2021/04/28 07:51:16;;;;;;;23.63;18.48;;;;;;;;;;4992746;28;20040;-61
2021/04/28 07:53:42;;;;;;;20.42;17.42;;;;;;;;;;4988588;28;20053;-61
2021/04/28 07:56:08;;;;;;;21.05;17.00;;;;;;;;;;4988238;28;20042;-61
2021/04/28 07:58:34;;;;;;;24.33;17.08;;;;;;;;;;4989013;28;20501;-61
2021/04/28 08:01:00;;;;;;;20.83;16.85;;;;;;;;;;4982761;28;20022;-61
2021/04/28 08:03:26;;;;;;;21.35;17.35;;;;;;;;;;4985882;28;20050;-61
2021/04/28 08:05:52;;;;;;;21.20;17.00;;;;;;;;;;4989683;28;20031;-61
2021/04/28 08:08:18;;;;;;;21.30;16.85;;;;;;;;;;4992388;28;20026;-60
2021/04/28 08:10:44;;;;;;;19.60;15.57;;;;;;;;;;4996720;28;20019;-61
2021/04/28 08:13:11;;;;;;;19.38;15.60;;;;;;;;;;4988322;28;20053;-61
2021/04/28 08:15:38;;;;;;;18.83;15.20;;;;;;;;;;4989835;28;20042;-61
2021/04/28 08:18:04;;;;;;;16.95;12.77;;;;;;;;;;4990092;28;20097;-61
2021/04/28 08:20:30;;;;;;;18.83;14.88;;;;;;;;;;4988808;28;20470;-61
2021/04/28 08:22:56;;;;;;;17.50;14.77;;;;;;;;;;4987852;28;20030;-61
2021/04/28 08:25:23;;;;;;;20.45;14.85;;;;;;;;;;4988385;28;20100;-61
2021/04/28 08:27:49;;;;;;;12.77;9.35;;;;;;;;;;4988256;28;20464;-61
2021/04/28 08:30:16;;;;;;;19.23;13.55;;;;;;;;;;4991645;28;20030;-61
2021/04/28 08:32:42;;;;;;;16.70;11.68;;;;;;;;;;4989848;28;20035;-61
2021/04/28 08:35:13;;;;;;;13.98;10.32;;;;;;;;;;4988430;28;20076;-61
2021/04/28 08:37:39;;;;;;;16.15;12.57;;;;;;;;;;4987941;28;20030;-61
2021/04/28 08:40:05;;;;;;;14.30;11.07;;;;;;;;;;4988836;28;20027;-61
2021/04/28 08:42:32;;;;;;;14.93;11.82;;;;;;;;;;4990348;28;20042;-61
2021/04/28 08:44:58;;;;;;;16.45;11.70;;;;;;;;;;4984953;28;20540;-61
2021/04/28 08:47:25;;;;;;;15.23;11.57;;;;;;;;;;4987854;28;20026;-61
2021/04/28 08:49:50;;;;;;;15.45;10.85;;;;;;;;;;4988338;28;20051;-61
2021/04/28 08:52:16;;;;;;;15.40;11.10;;;;;;;;;;4989232;28;20430;-61
2021/04/28 08:54:42;;;;;;;15.98;11.20;;;;;;;;;;4988687;28;20041;-61
2021/04/28 08:57:10;;;;;;;17.10;11.77;;;;;;;;;;4990727;28;20042;-59
2021/04/28 08:59:36;;;;;;;16.67;12.02;;;;;;;;;;4987767;28;20042;-61
2021/04/28 09:02:12;;;;;;;15.80;11.75;;;;;;;;;;4988087;28;20034;-61
2021/04/28 09:04:38;;;;;;;15.00;12.20;;;;;;;;;;4988112;28;20061;-61
2021/04/28 09:07:04;;;;;;;14.50;12.10;;;;;;;;;;4988183;28;20023;-61
2021/04/28 09:09:30;;;;;;;18.63;13.10;;;;;;;;;;5001798;28;20025;-61
2021/04/28 09:11:58;;;;;;;15.95;11.48;;;;;;;;;;4984883;28;20026;-61
2021/04/28 09:14:24;;;;;;;;;;;;;;;;;;4985574;28;20503;-61
2021/04/28 09:16:56;;;;;;;15.60;12.25;;;;;;;;;;4987899;28;19921;-61
2021/04/28 09:19:23;;;;;;;14.50;12.27;;;;;;;;;;4988292;28;20027;-61
2021/04/28 09:21:51;;;;;;;16.60;12.82;;;;;;;;;;4990297;28;20030;-61
2021/04/28 09:24:24;;;;;;;16.50;12.27;;;;;;;;;;4994031;28;20089;-61
2021/04/28 09:26:53;;;;;;;17.48;13.10;;;;;;;;;;4993902;28;20034;-61
2021/04/28 09:29:20;;;;;;;17.67;12.35;;;;;;;;;;4991915;28;20022;-61
2021/04/28 09:31:55;;;;;;;18.90;11.85;;;;;;;;;;4991215;28;20437;-61
2021/04/28 09:34:26;;;;;;;16.45;12.43;;;;;;;;;;4991242;28;20038;-61
2021/04/28 09:36:59;;;;;;;16.35;12.90;;;;;;;;;;4991748;28;20634;-61
2021/04/28 09:39:25;;;;;;;16.92;13.63;;;;;;;;;;4994279;28;20021;-61
2021/04/28 09:41:55;;;;;;;21.88;12.75;;;;;;;;;;4992238;28;20033;-61
2021/04/28 09:44:29;;;;;;;18.65;13.52;;;;;;;;;;4990346;28;20394;-61
2021/04/28 09:46:56;;;;;;;15.45;12.27;;;;;;;;;;4990228;28;20514;-61
2021/04/28 09:49:23;;;;;;;15.45;12.23;;;;;;;;;;4980636;28;20030;-61
2021/04/28 09:51:53;;;;;;;16.80;12.95;;;;;;;;;;4992179;28;20061;-61
2021/04/28 09:54:19;;;;;;;16.42;11.90;;;;;;;;;;4992825;28;20026;-61
2021/04/28 09:56:45;;;;;;;15.77;12.13;;;;;;;;;;4992230;28;20037;-61
2021/04/28 09:59:11;;;;;;;17.10;12.38;;;;;;;;;;4989426;28;20026;-61
2021/04/28 10:01:39;;;;;;;13.57;11.30;;;;;;;;;;4990837;28;20085;-61
2021/04/28 10:04:07;;;;;;;15.60;12.57;;;;;;;;;;4993923;28;20030;-61
2021/04/28 10:06:47;;;;;;;14.13;11.43;;;;;;;;;;4989862;28;20026;-61
2021/04/28 10:09:25;;;;;;;16.10;12.40;;;;;;;;;;5001108;28;20485;-61
2021/04/28 10:11:51;;;;;;;13.88;11.00;;;;;;;;;;4990915;28;20441;-60
2021/04/28 10:14:17;;;;;;;15.40;11.70;;;;;;;;;;4984302;28;20512;-61
2021/04/28 10:16:44;;;;;;;14.45;11.85;;;;;;;;;;4989205;28;20132;-61
2021/04/28 10:19:10;;;;;;;16.83;12.50;;;;;;;;;;4989271;28;20390;-61
2021/04/28 10:21:37;;;;;;;15.77;11.18;;;;;;;;;;4989887;28;20073;-60
2021/04/28 10:24:04;;;;;;;14.50;10.75;;;;;;;;;;4992344;28;20125;-60
2021/04/28 10:26:30;;;;;;;16.85;11.55;;;;;;;;;;4991042;28;20061;-60
2021/04/28 10:28:58;;;;;;;14.00;10.55;;;;;;;;;;4989940;28;20084;-60
2021/04/28 10:31:24;;;;;;;14.97;10.60;;;;;;;;;;4989479;28;20079;-61
2021/04/28 10:33:50;;;;;;;14.07;11.48;;;;;;;;;;4989031;28;20072;-60
2021/04/28 10:36:16;;;;;;;14.07;11.32;;;;;;;;;;4993020;28;20088;-60
2021/04/28 10:38:42;;;;;;;14.85;10.52;;;;;;;;;;4992181;28;20018;-60
2021/04/28 10:41:28;;;;;;;14.93;10.27;;;;;;;;;;4990341;28;20452;-62
2021/04/28 10:43:54;;;;;;;13.48;10.65;;;;;;;;;;4988271;28;20030;-62
2021/04/28 10:46:21;;;;;;;13.77;10.15;;;;;;;;;;4990483;28;20485;-70
2021/04/28 10:48:47;;;;;;;13.52;10.13;;;;;;;;;;4990028;28;20497;-65
2021/04/28 10:51:43;;;;;;;11.88;9.55;;;;;;;;;;4993619;28;20022;-66
2021/04/28 10:54:21;;;;;;;13.10;9.77;;;;;;;;;;4983287;28;20061;-65
2021/04/28 10:56:46;;;;;;;;;;;;;;;;;;4990659;28;20042;-65
2021/04/28 10:59:31;;;;;;;12.13;9.60;;;;;;;;;;4987914;28;19914;-67
2021/04/28 11:02:06;;;;;;;13.68;9.43;;;;;;;;;;4988211;28;20478;-67
2021/04/28 11:04:32;;;;;;;13.32;9.45;;;;;;;;;;4986937;28;20026;-68
2021/04/28 11:06:58;;;;;;;10.50;8.18;;;;;;;;;;4988351;28;20031;-68
2021/04/28 11:09:26;;;;;;;12.50;9.50;;;;;;;;;;5001942;28;20030;-66
2021/04/28 11:11:54;;;;;;;11.95;9.23;;;;;;;;;;4988791;28;20596;-66
2021/04/28 11:16:52;;;;;;;11.93;8.98;;;;;;;;;;4989083;28;20563;-65
2021/04/28 11:19:24;;;;;;;11.73;8.60;;;;;;;;;;4979790;28;20026;-65
2021/04/28 11:22:10;;;;;;;11.48;7.88;;;;;;;;;;4984013;28;20037;-64
2021/04/28 11:24:55;;;;;;;10.93;8.13;;;;;;;;;;4986592;28;20057;-68
2021/04/28 11:27:43;;;;;;;9.05;6.97;;;;;;;;;;4984732;28;20030;-66
2021/04/28 11:30:09;;;;;;;;;;;;;;;;;;4990328;28;20049;-67
2021/04/28 11:32:35;;;;;;;11.15;7.85;;;;;;;;;;4986161;28;19909;-67
2021/04/28 11:35:12;;;;;;;10.20;7.47;;;;;;;;;;4985906;28;20056;-68
2021/04/28 11:37:38;;;;;;;11.45;7.88;;;;;;;;;;4984777;28;20046;-68
2021/04/28 11:40:07;;;;;;;10.00;7.72;;;;;;;;;;4978864;28;20096;-67
2021/04/28 11:42:33;;;;;;;9.18;7.35;;;;;;;;;;4987159;28;20027;-68
2021/04/28 11:44:59;;;;;;;10.57;7.53;;;;;;;;;;4987106;28;20497;-66
2021/04/28 11:47:27;;;;;;;9.50;7.72;;;;;;;;;;4987915;28;20030;-66
2021/04/28 11:49:53;;;;;;;10.93;7.38;;;;;;;;;;4987573;28;20520;-66
2021/04/28 11:52:20;;;;;;;10.35;7.55;;;;;;;;;;4976765;28;20038;-66
2021/04/28 11:54:52;;;;;;;10.43;8.07;;;;;;;;;;4987334;28;20042;-66
2021/04/28 11:57:26;;;;;;;9.80;7.05;;;;;;;;;;4986060;28;20137;-66
2021/04/28 12:00:01;;;;;;;12.13;7.75;;;;;;;;;;4986617;28;20093;-66
2021/04/28 12:02:27;;;;;;;11.25;8.38;;;;;;;;;;4987232;28;20026;-66
2021/04/28 12:04:53;;;;;;;9.52;7.50;;;;;;;;;;4988559;28;20390;-67
2021/04/28 12:07:20;;;;;;;17.42;8.40;;;;;;;;;;4989173;28;20080;-66
2021/04/28 12:09:47;;;;;;;14.18;8.55;;;;;;;;;;4993513;28;20451;-66
2021/04/28 12:12:18;;;;;;;10.90;8.18;;;;;;;;;;4981412;28;20023;-66
2021/04/28 12:14:46;;;;;;;11.80;7.40;;;;;;;;;;4989206;28;20030;-66
2021/04/28 12:17:12;;;;;;;9.77;6.57;;;;;;;;;;4988929;28;20038;-66
2021/04/28 12:19:38;;;;;;;11.98;7.30;;;;;;;;;;4988039;28;20023;-66
2021/04/28 12:22:06;;;;;;;12.63;8.30;;;;;;;;;;4989072;28;20077;-66
2021/04/28 12:24:33;;;;;;;9.63;7.80;;;;;;;;;;4978224;28;20043;-66
2021/04/28 12:27:02;;;;;;;10.13;7.57;;;;;;;;;;4990558;28;20026;-66
2021/04/28 12:29:28;;;;;;;11.90;8.95;;;;;;;;;;4984806;28;20050;-66
2021/04/28 12:31:54;;;;;;;10.20;7.88;;;;;;;;;;4988161;28;20385;-66
2021/04/28 12:34:21;;;;;;;11.68;8.32;;;;;;;;;;4986794;28;20030;-66
2021/04/28 12:36:47;;;;;;;10.30;7.35;;;;;;;;;;4984002;28;20101;-66
2021/04/28 12:39:28;;;;;;;10.02;6.95;;;;;;;;;;4987697;28;20390;-66
2021/04/28 12:41:55;;;;;;;9.30;7.10;;;;;;;;;;4991363;28;20112;-66
2021/04/28 12:44:22;;;;;;;12.00;6.93;;;;;;;;;;4988044;28;20489;-66
2021/04/28 12:46:49;;;;;;;12.20;7.50;;;;;;;;;;4988192;28;20034;-66
2021/04/28 12:49:15;;;;;;;9.82;7.53;;;;;;;;;;4977329;28;20478;-65
2021/04/28 12:51:51;;;;;;;11.25;7.40;;;;;;;;;;4986649;28;20141;-65
2021/04/28 12:54:27;;;;;;;10.88;6.50;;;;;;;;;;4985777;28;20045;-65
2021/04/28 12:56:53;;;;;;;8.95;7.00;;;;;;;;;;4992718;28;20137;-65
2021/04/28 12:59:21;;;;;;;11.15;7.22;;;;;;;;;;4992561;28;20026;-65
2021/04/28 13:01:47;;;;;;;;;;;;;;;;;;4992166;28;20034;-65
2021/04/28 13:04:20;;;;;;;10.20;8.38;;;;;;;;;;4990615;28;19905;-65
2021/04/28 13:06:46;;;;;;;10.52;8.05;;;;;;;;;;4976294;28;20474;-65
2021/04/28 13:09:15;;;;;;;12.20;9.13;;;;;;;;;;4994062;28;20101;-65
2021/04/28 13:11:44;;;;;;;12.52;9.18;;;;;;;;;;4991792;28;20034;-65
2021/04/28 13:14:16;;;;;;;12.68;9.10;;;;;;;;;;4991300;28;20101;-65
2021/04/28 13:17:00;;;;;;;10.57;8.93;;;;;;;;;;4991810;28;20034;-65
2021/04/28 13:19:29;;;;;;;13.55;8.88;;;;;;;;;;4991225;28;20030;-65
2021/04/28 13:21:59;;;;;;;12.35;8.88;;;;;;;;;;4991557;28;20023;-65
2021/04/28 13:24:27;;;;;;;12.13;8.55;;;;;;;;;;4993440;28;20034;-65
2021/04/28 13:27:12;;;;;;;12.20;8.25;;;;;;;;;;4992759;28;20036;-65
2021/04/28 13:30:11;;;;;;;13.20;8.70;;;;;;;;;;4991574;28;20493;-65
2021/04/28 13:32:44;;;;;;;12.85;10.23;;;;;;;;;;4982374;28;20062;-65
2021/04/28 13:35:36;;;;;;;13.27;9.70;;;;;;;;;;4989135;28;20034;-65
2021/04/28 13:38:04;;;;;;;15.00;9.93;;;;;;;;;;4987013;28;20061;-67
2021/04/28 13:40:35;;;;;;;12.55;9.45;;;;;;;;;;4991543;28;20423;-65
2021/04/28 13:43:05;;;;;;;13.10;9.15;;;;;;;;;;4988423;28;20487;-65
2021/04/28 13:45:31;;;;;;;12.82;8.57;;;;;;;;;;4993403;28;20033;-65
2021/04/28 13:47:57;;;;;;;12.52;8.85;;;;;;;;;;4992207;28;20033;-65
2021/04/28 13:50:24;;;;;;;12.38;8.82;;;;;;;;;;4990718;28;20026;-66
2021/04/28 13:52:50;;;;;;;10.98;8.55;;;;;;;;;;4988465;28;20037;-66
2021/04/28 13:55:16;;;;;;;12.50;8.88;;;;;;;;;;4990773;28;20019;-65
2021/04/28 13:57:43;;;;;;;12.52;8.32;;;;;;;;;;4991606;28;20042;-65
2021/04/28 14:00:10;;;;;;;9.35;7.43;;;;;;;;;;4993746;28;20026;-64
2021/04/28 14:02:37;;;;;;;11.75;8.05;;;;;;;;;;4989135;28;20033;-64
2021/04/28 14:05:03;;;;;;;12.35;9.15;;;;;;;;;;4989838;28;20030;-64
2021/04/28 14:07:29;;;;;;;9.55;7.20;;;;;;;;;;4990144;28;20041;-64
2021/04/28 14:09:55;;;;;;;9.05;6.60;;;;;;;;;;5003177;28;20031;-64
2021/04/28 14:12:21;;;;;;;8.23;6.05;;;;;;;;;;4992391;28;20037;-64
2021/04/28 14:14:47;;;;;;;11.73;8.93;;;;;;;;;;4991144;28;20081;-65
2021/04/28 14:17:13;;;;;;;11.80;8.30;;;;;;;;;;4990292;28;20085;-62
2021/04/28 14:19:39;;;;;;;9.10;6.05;;;;;;;;;;4990163;28;20054;-65
2021/04/28 14:22:05;;;;;;;9.73;5.63;;;;;;;;;;4989408;28;20427;-65
2021/04/28 14:24:31;;;;;;;11.63;8.55;;;;;;;;;;4992100;28;20498;-65